Cullman, Alabama
Current Conditions -  °F | °C
As of 5:35 AM on Saturday 20 Dec 2014 (Local Time) from KCMD Reporting Station
Overcast Overcast  
Wind Chill: 31°   Ceiling: 4000
Heat Index: 36°   Visibility: 7mi
Dew Point: 33°   Wind: 6mph
Humidity: 89%   Direction: 350°N
Pressure: 30.2"   Gusts: NA
Location:  34.17°N, 86.84°W
Report Text: KCMD 201135Z AUTO 35005KT 7SM OVC040 02/00 A3020 RMK AO2 T00200003
Loading
Personal Weather Stations






























Interactive Weather Map New forecast layout! Learn more

10-Day Weather Forecast

Advertisements
Track Severe Weather on mobile